Time;durP1;ratioP1;P1;durP2;ratioP2;P2;SDS_P1;SDS_P2;PMS_P1;PMS_P2;Temp;Humidity;BMP_temperature;BMP_pressure;BME280_temperature;BME280_humidity;BME280_pressure;Samples;Min_cycle;Max_cycle;Signal;HPM_P1;HPM_P2
2024/02/21 00:01:16;;;;;;;0.00;0.00;;;;;;;9.50;100.00;100746.47;6169396;23;20020;-78
2024/02/21 00:03:41;;;;;;;0.00;0.00;;;;;;;9.49;100.00;100738.53;6168789;23;20004;-79
2024/02/21 00:06:07;;;;;;;0.00;0.00;;;;;;;9.65;100.00;100750.47;6143830;23;20009;-79
2024/02/21 00:11:48;;;;;;;0.00;0.00;;;;;;;9.61;100.00;100756.44;6100799;23;20038;-79
2024/02/21 00:14:46;;;;;;;0.00;0.00;;;;;;;9.24;100.00;100698.84;6063157;23;20002;-79
2024/02/21 00:17:29;;;;;;;0.00;0.00;;;;;;;9.15;100.00;100690.28;6099259;23;20002;-79
2024/02/21 00:22:52;;;;;;;0.00;0.00;;;;;;;9.36;100.00;100729.63;6170575;23;20043;-81
2024/02/21 00:25:18;;;;;;;0.10;0.10;;;;;;;9.33;100.00;100718.34;6192299;23;20028;-80
2024/02/21 00:27:43;;;;;;;0.00;0.00;;;;;;;9.28;100.00;100715.56;6166824;23;20013;-80
2024/02/21 00:30:17;;;;;;;0.00;0.00;;;;;;;9.32;100.00;100720.28;6192263;23;20014;-79
2024/02/21 00:32:42;;;;;;;0.10;0.10;;;;;;;9.13;100.00;100686.16;6168225;23;20005;-79
2024/02/21 00:35:08;;;;;;;0.00;0.00;;;;;;;9.05;100.00;100684.66;6143198;23;20427;-81
2024/02/21 00:37:36;;;;;;;0.00;0.00;;;;;;;8.95;100.00;100666.25;6190844;23;20060;-82
2024/02/21 00:43:52;;;;;;;;;;;;;;;;;;;;;
2024/02/21 00:46:47;;;;;;;0.00;0.00;;;;;;;9.17;100.00;100699.06;6203259;23;20091;-80
2024/02/21 00:49:12;;;;;;;0.10;0.10;;;;;;;9.14;100.00;100682.34;6212547;23;20052;-79
2024/02/21 00:51:38;;;;;;;0.05;0.05;;;;;;;8.99;100.00;100661.94;6218318;23;20013;-80
2024/02/21 00:54:03;;;;;;;0.00;0.00;;;;;;;8.87;100.00;100632.03;6138434;23;20004;-80
2024/02/21 00:56:30;;;;;;;0.00;0.00;;;;;;;9.03;100.00;100659.53;6165169;23;20004;-81
2024/02/21 00:58:55;;;;;;;0.00;0.00;;;;;;;8.97;100.00;100649.63;6192423;23;20071;-77
2024/02/21 01:01:53;;;;;;;0.00;0.00;;;;;;;8.79;100.00;100623.44;6193015;23;20004;-78
2024/02/21 01:04:31;;;;;;;0.10;0.10;;;;;;;8.66;100.00;100602.78;6210306;23;20016;-78
2024/02/21 01:06:56;;;;;;;0.00;0.00;;;;;;;8.74;100.00;100603.19;6190995;23;20008;-79
2024/02/21 01:09:21;;;;;;;0.00;0.00;;;;;;;8.66;100.00;100570.06;6167115;23;20039;-81
2024/02/21 01:11:52;;;;;;;0.00;0.00;;;;;;;8.73;100.00;100603.44;6215199;23;20008;-77
2024/02/21 01:14:49;;;;;;;0.00;0.00;;;;;;;8.75;100.00;100587.69;6141543;23;20012;-81
2024/02/21 01:17:17;;;;;;;0.00;0.00;;;;;;;8.90;100.00;100609.72;6169090;23;20390;-82
2024/02/21 01:19:45;;;;;;;0.00;0.00;;;;;;;8.73;100.00;100568.00;6169142;23;19996;-83
2024/02/21 01:22:12;;;;;;;0.00;0.00;;;;;;;8.95;100.00;100592.63;6168609;23;20012;-82
2024/02/21 01:24:54;;;;;;;0.00;0.00;;;;;;;8.79;100.00;100561.56;6191645;23;20005;-78
2024/02/21 01:27:30;;;;;;;0.00;0.00;;;;;;;8.66;100.00;100534.63;6168880;23;20423;-80
2024/02/21 01:29:55;;;;;;;0.00;0.00;;;;;;;8.73;100.00;100540.75;6143536;23;20024;-81
2024/02/21 01:32:24;;;;;;;0.00;0.00;;;;;;;8.97;100.00;100565.09;6192298;23;20004;-78
2024/02/21 01:34:49;;;;;;;0.00;0.00;;;;;;;9.05;100.00;100570.94;6191374;23;20012;-78
2024/02/21 01:37:15;;;;;;;0.00;0.00;;;;;;;9.08;100.00;100573.16;6166823;23;20051;-82
2024/02/21 01:39:40;;;;;;;0.00;0.00;;;;;;;9.04;100.00;100555.63;6190966;23;20012;-80
2024/02/21 01:42:05;;;;;;;0.00;0.00;;;;;;;9.13;100.00;100561.47;6166951;23;20066;-81
2024/02/21 01:44:31;;;;;;;0.00;0.00;;;;;;;8.95;100.00;100531.75;6139257;23;20412;-80
2024/02/21 01:46:57;;;;;;;0.00;0.00;;;;;;;8.90;100.00;100519.72;6191389;23;20412;-80
2024/02/21 01:49:31;;;;;;;0.00;0.00;;;;;;;8.68;100.00;100488.88;6165116;23;20047;-81
2024/02/21 01:52:35;;;;;;;0.00;0.00;;;;;;;8.87;100.00;100525.66;6192476;23;20010;-80
2024/02/21 01:55:21;;;;;;;;;;;;;;;;;;;;;
2024/02/21 01:57:56;;;;;;;0.00;0.00;;;;;;;8.46;100.00;100495.13;6196890;23;20073;-81
2024/02/21 02:00:44;;;;;;;0.00;0.00;;;;;;;8.27;100.00;100466.47;6191363;23;20031;-80
2024/02/21 02:03:28;;;;;;;0.00;0.00;;;;;;;8.23;100.00;100462.59;6191808;23;20032;-80
2024/02/21 02:05:53;;;;;;;0.00;0.00;;;;;;;8.27;100.00;100466.47;6193046;23;20064;-79
2024/02/21 02:08:22;;;;;;;0.00;0.00;;;;;;;8.43;100.00;100495.59;6191020;23;20420;-80
2024/02/21 02:10:47;;;;;;;0.00;0.00;;;;;;;8.30;100.00;100477.69;6167691;23;20012;-79
2024/02/21 02:13:13;;;;;;;0.10;0.10;;;;;;;8.12;100.00;100437.91;6191574;23;19996;-80
2024/02/21 02:15:43;;;;;;;0.00;0.00;;;;;;;8.36;100.00;100481.31;6191496;23;20011;-78
2024/02/21 02:18:19;;;;;;;;;;;;;;;;;;;;;
2024/02/21 02:20:48;;;;;;;0.00;0.00;;;;;;;7.98;100.00;100431.16;6195228;23;20071;-79
2024/02/21 02:23:26;;;;;;;0.00;0.00;;;;;;;8.32;100.00;100471.97;6193653;23;20015;-80
2024/02/21 02:26:45;;;;;;;0.00;0.00;;;;;;;7.97;100.00;100418.59;6190869;23;20440;-78
2024/02/21 02:29:49;;;;;;;0.00;0.00;;;;;;;8.36;100.00;100471.22;6066685;23;20449;-79
2024/02/21 02:32:15;;;;;;;0.00;0.00;;;;;;;8.00;100.00;100412.66;6009077;23;20053;-78
2024/02/21 02:34:41;;;;;;;0.00;0.00;;;;;;;8.29;100.00;100462.41;6179759;23;20067;-80
2024/02/21 02:37:09;;;;;;;0.00;0.00;;;;;;;8.38;100.00;100480.00;6199551;23;20008;-80
2024/02/21 02:39:35;;;;;;;0.00;0.00;;;;;;;8.10;100.00;100429.16;6207194;22;20104;-79
2024/02/21 02:42:01;;;;;;;0.10;0.10;;;;;;;8.26;100.00;100443.81;6211775;22;19997;-80
2024/02/21 02:44:27;;;;;;;0.00;0.00;;;;;;;8.16;100.00;100411.00;6235820;22;20000;-80
2024/02/21 02:46:52;;;;;;;0.00;0.00;;;;;;;8.20;100.00;100415.69;6185121;22;19989;-78
2024/02/21 02:49:18;;;;;;;0.00;0.00;;;;;;;8.37;100.00;100440.19;6234250;22;20009;-78
2024/02/21 02:51:44;;;;;;;0.00;0.00;;;;;;;8.29;100.00;100428.88;6197730;23;20427;-78
2024/02/21 02:55:10;;;;;;;;;;;;;;;;;;;;;
2024/02/21 02:57:11;;;;;;;;;;;;;;;;;;;;;
2024/02/21 03:00:21;;;;;;;0.00;0.00;;;;;;;8.13;100.00;100374.22;6223533;23;20024;-79
2024/02/21 03:03:10;;;;;;;0.00;0.00;;;;;;;8.40;100.00;100408.88;6174341;23;20035;-80
2024/02/21 03:05:39;;;;;;;0.10;0.10;;;;;;;8.12;100.00;100364.38;6192922;23;20020;-79
2024/02/21 03:08:22;;;;;;;0.00;0.00;;;;;;;8.48;100.00;100403.00;6193567;23;20084;-78
2024/02/21 03:10:48;;;;;;;0.00;0.00;;;;;;;8.28;100.00;100370.03;6219211;23;20099;-79
2024/02/21 03:13:13;;;;;;;0.00;0.00;;;;;;;8.39;100.00;100375.34;6219618;23;20401;-79
2024/02/21 03:15:39;;;;;;;0.00;0.00;;;;;;;8.51;100.00;100388.91;6190862;23;20078;-78
2024/02/21 03:18:04;;;;;;;0.00;0.00;;;;;;;8.34;100.00;100341.78;6165777;23;20313;-78
2024/02/21 03:20:30;;;;;;;0.00;0.00;;;;;;;8.55;100.00;100375.59;6165678;23;20383;-78
2024/02/21 03:22:55;;;;;;;0.00;0.00;;;;;;;8.58;100.00;100369.63;6188450;23;20044;-79
2024/02/21 03:25:21;;;;;;;0.00;0.00;;;;;;;8.55;100.00;100354.59;6164494;23;20104;-78
2024/02/21 03:27:47;;;;;;;0.00;0.00;;;;;;;8.62;100.00;100361.78;6138032;23;20032;-79
2024/02/21 03:30:12;;;;;;;0.00;0.00;;;;;;;8.43;100.00;100332.06;6166189;23;20012;-79
2024/02/21 03:32:39;;;;;;;0.00;0.00;;;;;;;8.39;100.00;100317.31;6166144;23;20008;-80
2024/02/21 03:35:12;;;;;;;0.00;0.00;;;;;;;8.31;100.00;100299.50;6191546;23;20087;-82
2024/02/21 03:38:11;;;;;;;0.00;0.00;;;;;;;8.37;100.00;100300.41;6167194;23;20111;-81
2024/02/21 03:44:15;;;;;;;;;;;;;;;;;;;;;
2024/02/21 03:46:48;;;;;;;0.00;0.00;;;;;;;8.36;100.00;100296.03;6172435;23;20024;-80
2024/02/21 03:49:14;;;;;;;0.00;0.00;;;;;;;8.19;100.00;100258.78;6189988;23;20100;-81
2024/02/21 03:51:39;;;;;;;0.00;0.00;;;;;;;8.59;100.00;100296.88;6191781;23;20357;-80
2024/02/21 03:54:04;;;;;;;0.00;0.00;;;;;;;8.61;100.00;100286.53;6139463;23;20011;-81
2024/02/21 03:56:30;;;;;;;0.00;0.00;;;;;;;8.63;100.00;100284.34;6162633;23;19988;-79
2024/02/21 03:58:55;;;;;;;0.10;0.10;;;;;;;8.65;100.00;100277.56;6164806;23;20761;-80
2024/02/21 04:01:21;;;;;;;0.00;0.00;;;;;;;8.59;100.00;100256.00;6191533;23;20081;-80
2024/02/21 04:03:51;;;;;;;0.00;0.00;;;;;;;8.68;100.00;100266.16;6140882;23;20087;-79
2024/02/21 04:06:22;;;;;;;0.00;0.00;;;;;;;8.45;100.00;100223.66;6191199;23;20020;-76
2024/02/21 04:08:50;;;;;;;0.00;0.00;;;;;;;8.67;100.00;100247.31;6189637;23;20051;-78
2024/02/21 04:11:15;;;;;;;0.00;0.00;;;;;;;8.51;100.00;100206.31;6165728;23;20110;-78
2024/02/21 04:13:50;;;;;;;;;;;;;;;;;;;;;
2024/02/21 04:16:19;;;;;;;0.00;0.00;;;;;;;8.53;100.00;100198.69;6194016;23;20751;-79
2024/02/21 04:19:15;;;;;;;;;;;;;;;;;;;;;
2024/02/21 04:21:56;;;;;;;0.00;0.00;;;;;;;8.75;100.00;100208.69;6217201;23;20023;-79
2024/02/21 04:27:33;;;;;;;0.00;0.00;;;;;;;8.70;100.00;100173.19;6096634;23;20074;-78
2024/02/21 04:29:58;;;;;;;0.00;0.00;;;;;;;8.51;100.00;100151.81;6216471;23;19992;-78
2024/02/21 04:32:24;;;;;;;0.03;0.03;;;;;;;8.63;100.00;100173.44;6190272;23;20009;-77
2024/02/21 04:34:49;;;;;;;0.00;0.00;;;;;;;8.59;100.00;100169.56;6216073;23;20086;-78
2024/02/21 04:37:15;;;;;;;0.00;0.00;;;;;;;8.39;100.00;100143.72;6165275;23;21569;-78
2024/02/21 04:39:40;;;;;;;0.00;0.00;;;;;;;8.54;100.00;100164.91;6216191;23;20688;-77
2024/02/21 04:42:06;;;;;;;0.00;0.00;;;;;;;8.38;100.00;100141.28;6166600;23;20363;-78
2024/02/21 04:44:31;;;;;;;0.00;0.00;;;;;;;8.35;100.00;100142.63;6218380;23;20091;-77
2024/02/21 04:46:57;;;;;;;0.00;0.00;;;;;;;8.23;100.00;100128.34;6190715;23;20368;-78
2024/02/21 04:49:22;;;;;;;0.00;0.00;;;;;;;8.19;100.00;100117.16;6193045;23;20008;-78
2024/02/21 04:51:50;;;;;;;0.00;0.00;;;;;;;8.25;100.00;100120.75;6163168;23;20095;-78
2024/02/21 04:54:25;;;;;;;0.00;0.00;;;;;;;8.33;100.00;100133.88;6193118;23;19993;-79
2024/02/21 04:57:17;;;;;;;;;;;;;;;;;;;;;
2024/02/21 04:59:56;;;;;;;0.10;0.10;;;;;;;8.27;100.00;100104.13;6217889;23;20031;-76
2024/02/21 05:02:48;;;;;;;0.00;0.00;;;;;;;8.19;100.00;100089.06;6166946;23;20721;-78
2024/02/21 05:05:29;;;;;;;;;;;;;;;;;;;;;
2024/02/21 05:08:09;;;;;;;0.00;0.00;;;;;;;8.29;100.00;100088.34;6195117;23;20073;-77
2024/02/21 05:10:48;;;;;;;0.00;0.00;;;;;;;8.00;100.00;100025.97;6168823;23;20336;-78
2024/02/21 05:13:13;;;;;;;0.00;0.00;;;;;;;8.10;100.00;100053.31;6169070;23;20013;-77
2024/02/21 05:15:39;;;;;;;0.00;0.00;;;;;;;8.12;100.00;100053.88;6192872;23;20005;-78
2024/02/21 05:18:04;;;;;;;0.00;0.00;;;;;;;8.21;100.00;100059.69;6170639;23;20012;-76
2024/02/21 05:20:30;;;;;;;0.00;0.00;;;;;;;8.16;100.00;100060.47;6191360;23;20416;-77
2024/02/21 05:22:55;;;;;;;0.00;0.00;;;;;;;8.25;100.00;100068.97;6195812;23;20076;-77
2024/02/21 05:25:20;;;;;;;0.00;0.00;;;;;;;8.01;100.00;100005.84;6193944;23;19984;-77
2024/02/21 05:27:49;;;;;;;0.00;0.00;;;;;;;8.32;100.00;100038.78;6169356;23;20070;-78
2024/02/21 05:30:16;;;;;;;0.00;0.00;;;;;;;8.25;100.00;100027.28;6170191;23;20012;-76
2024/02/21 05:32:47;;;;;;;0.00;0.00;;;;;;;8.29;100.00;100050.19;6168856;23;20008;-78
2024/02/21 05:35:47;;;;;;;0.00;0.00;;;;;;;8.18;100.00;100011.97;6194700;23;19996;-78
2024/02/21 05:38:12;;;;;;;0.00;0.00;;;;;;;8.05;100.00;99979.75;6191560;23;20012;-79
2024/02/21 05:40:51;;;;;;;;;;;;;;;;;;;;;
2024/02/21 05:43:19;;;;;;;0.00;0.00;;;;;;;8.30;100.00;100002.81;6215007;23;20083;-78
2024/02/21 05:45:44;;;;;;;0.00;0.00;;;;;;;8.07;100.00;99965.88;6189201;23;20071;-78
2024/02/21 05:48:19;;;;;;;0.00;0.00;;;;;;;8.28;100.00;99996.78;6162695;23;20012;-77
2024/02/21 05:50:45;;;;;;;0.00;0.00;;;;;;;8.21;100.00;99973.31;6191503;23;20463;-78
2024/02/21 05:53:11;;;;;;;0.00;0.00;;;;;;;8.10;100.00;99955.25;6166307;23;20001;-78
2024/02/21 05:55:41;;;;;;;0.00;0.00;;;;;;;8.08;100.00;99930.22;6190045;23;20087;-80
2024/02/21 05:58:13;;;;;;;0.00;0.00;;;;;;;8.21;100.00;99946.09;6215592;23;19996;-77
2024/02/21 06:00:41;;;;;;;0.00;0.00;;;;;;;8.25;100.00;99951.00;6142484;23;20004;-77
2024/02/21 06:03:07;;;;;;;0.00;0.00;;;;;;;8.31;100.00;99949.94;6165506;23;20551;-79
2024/02/21 06:05:38;;;;;;;0.00;0.00;;;;;;;8.16;100.00;99921.56;6163375;23;20099;-78
2024/02/21 06:08:04;;;;;;;0.00;0.00;;;;;;;8.15;100.00;99919.91;6190354;23;20011;-77
2024/02/21 06:10:32;;;;;;;0.00;0.00;;;;;;;8.26;100.00;99937.13;6140203;23;20087;-78
2024/02/21 06:12:57;;;;;;;0.00;0.00;;;;;;;8.25;100.00;99923.78;6188470;23;20412;-77
2024/02/21 06:15:23;;;;;;;0.00;0.00;;;;;;;8.16;100.00;99910.66;6189837;23;20055;-76
2024/02/21 06:17:48;;;;;;;0.00;0.00;;;;;;;8.26;100.00;99911.78;6187632;23;20063;-75
2024/02/21 06:20:16;;;;;;;0.00;0.00;;;;;;;8.25;100.00;99907.44;6193289;23;20211;-77
2024/02/21 06:22:44;;;;;;;0.00;0.00;;;;;;;8.17;100.00;99890.50;6171825;23;20015;-78
2024/02/21 06:25:10;;;;;;;0.00;0.00;;;;;;;8.24;100.00;99905.81;6195093;23;20019;-78
2024/02/21 06:27:35;;;;;;;0.00;0.00;;;;;;;8.26;100.00;99912.59;6220108;23;20459;-77
2024/02/21 06:30:00;;;;;;;0.00;0.00;;;;;;;8.24;100.00;99889.47;6171739;23;20305;-79
2024/02/21 06:32:26;;;;;;;0.00;0.00;;;;;;;8.27;100.00;99899.81;6186980;23;20328;-77
2024/02/21 06:34:51;;;;;;;0.00;0.00;;;;;;;8.14;100.00;99869.22;6166977;23;19985;-77
2024/02/21 06:37:17;;;;;;;0.00;0.00;;;;;;;8.11;100.00;99869.75;6140598;23;20024;-77
2024/02/21 06:39:42;;;;;;;0.00;0.00;;;;;;;8.11;100.00;99858.06;6191827;23;20340;-77
2024/02/21 06:42:08;;;;;;;0.10;0.10;;;;;;;8.18;100.00;99875.81;6165640;23;20424;-76
2024/02/21 06:44:40;;;;;;;0.00;0.00;;;;;;;8.06;100.00;99855.28;6189236;23;20015;-76
2024/02/21 06:47:08;;;;;;;0.00;0.00;;;;;;;8.13;100.00;99861.31;6168133;23;20014;-77
2024/02/21 06:49:34;;;;;;;0.00;0.00;;;;;;;8.12;100.00;99855.06;6165797;23;20005;-76
2024/02/21 06:52:00;;;;;;;0.00;0.00;;;;;;;8.14;100.00;99847.44;6166691;23;20003;-75
2024/02/21 06:54:25;;;;;;;0.00;0.00;;;;;;;8.19;100.00;99860.25;6164819;23;20015;-77
2024/02/21 06:56:50;;;;;;;0.05;0.05;;;;;;;8.15;100.00;99854.53;6190131;23;20012;-76
2024/02/21 06:59:16;;;;;;;0.00;0.00;;;;;;;8.23;100.00;99845.03;6166075;23;20432;-77
2024/02/21 07:01:47;;;;;;;0.00;0.00;;;;;;;8.12;100.00;99833.28;6189067;23;20034;-78
2024/02/21 07:04:12;;;;;;;0.00;0.00;;;;;;;8.09;100.00;99819.38;6187387;23;20055;-77
2024/02/21 07:06:40;;;;;;;0.00;0.00;;;;;;;8.12;100.00;99822.38;6214573;23;20008;-77
2024/02/21 07:09:05;;;;;;;0.00;0.00;;;;;;;8.15;100.00;99824.59;6139115;23;20001;-77
2024/02/21 07:12:04;;;;;;;;;;;;;;;;;;;;;
2024/02/21 07:14:43;;;;;;;;;;;;;;;;;;;;;
2024/02/21 07:17:09;;;;;;;0.00;0.00;;;;;;;8.06;100.00;99779.88;6195897;23;20052;-75
2024/02/21 07:19:35;;;;;;;0.00;0.00;;;;;;;8.12;100.00;99781.53;6192444;23;20005;-76
2024/02/21 07:22:03;;;;;;;0.00;0.00;;;;;;;8.03;100.00;99764.03;6188689;23;20015;-76
2024/02/21 07:24:29;;;;;;;0.00;0.00;;;;;;;8.16;100.00;99771.75;6142498;23;20001;-76
2024/02/21 07:26:55;;;;;;;0.00;0.00;;;;;;;8.13;100.00;99769.56;6169566;23;20063;-76
2024/02/21 07:29:21;;;;;;;0.00;0.00;;;;;;;8.21;100.00;99779.94;6142116;23;20597;-74
2024/02/21 07:31:51;;;;;;;0.00;0.00;;;;;;;8.04;100.00;99744.75;6166037;23;20004;-76
2024/02/21 07:34:17;;;;;;;0.10;0.10;;;;;;;8.14;100.00;99749.41;6141167;23;20028;-76
2024/02/21 07:36:43;;;;;;;0.10;0.10;;;;;;;8.11;100.00;99739.03;6166930;23;20008;-77
2024/02/21 07:39:08;;;;;;;0.10;0.10;;;;;;;8.15;100.00;99744.78;6135775;23;20024;-77
2024/02/21 07:41:34;;;;;;;0.08;0.08;;;;;;;8.13;100.00;99736.88;6160064;23;19997;-76
2024/02/21 07:44:00;;;;;;;0.00;0.00;;;;;;;8.16;100.00;99749.13;6132922;23;20005;-74
2024/02/21 07:46:25;;;;;;;0.00;0.00;;;;;;;8.12;100.00;99740.69;6155109;23;20697;-74
2024/02/21 07:48:53;;;;;;;0.00;0.00;;;;;;;8.08;100.00;99727.88;6110538;23;20020;-75
2024/02/21 07:51:19;;;;;;;0.00;0.00;;;;;;;8.07;100.00;99724.31;6154591;23;20484;-75
2024/02/21 07:53:48;;;;;;;0.00;0.00;;;;;;;8.18;100.00;99715.09;6133695;23;20083;-75
2024/02/21 07:56:17;;;;;;;0.00;0.00;;;;;;;8.12;100.00;99707.16;6156256;23;20059;-75
2024/02/21 07:58:43;;;;;;;0.10;0.10;;;;;;;8.09;100.00;99703.09;6184495;23;19997;-76
2024/02/21 08:01:08;;;;;;;0.00;0.00;;;;;;;8.11;100.00;99697.38;6154834;23;20008;-76
2024/02/21 08:03:34;;;;;;;0.00;0.00;;;;;;;8.10;100.00;99698.47;6158147;23;20015;-76
2024/02/21 08:06:00;;;;;;;0.00;0.00;;;;;;;8.02;100.00;99688.91;6132643;23;20037;-74
2024/02/21 08:08:26;;;;;;;0.00;0.00;;;;;;;8.15;100.00;99706.66;6132308;23;20009;-76
2024/02/21 08:10:52;;;;;;;0.00;0.00;;;;;;;8.14;100.00;99715.91;6159193;23;20428;-75
2024/02/21 08:13:20;;;;;;;0.00;0.00;;;;;;;8.08;100.00;99693.28;6183140;23;19993;-76
2024/02/21 08:15:46;;;;;;;0.00;0.00;;;;;;;8.02;100.00;99675.31;6156187;23;20372;-77
2024/02/21 08:18:11;;;;;;;0.00;0.00;;;;;;;8.08;100.00;99701.44;6157854;23;20091;-76
2024/02/21 08:20:38;;;;;;;0.00;0.00;;;;;;;8.04;100.00;99686.72;6112951;23;20021;-76
2024/02/21 08:23:03;;;;;;;0.00;0.00;;;;;;;8.00;100.00;99683.75;6160638;23;20040;-76
2024/02/21 08:25:29;;;;;;;0.00;0.00;;;;;;;7.99;100.00;99670.41;6159537;23;20036;-77
2024/02/21 08:27:59;;;;;;;0.00;0.00;;;;;;;7.97;100.00;99667.94;6159641;23;20075;-75
2024/02/21 08:30:24;;;;;;;0.00;0.00;;;;;;;7.86;100.00;99658.91;6135789;23;20029;-73
2024/02/21 08:32:50;;;;;;;0.00;0.00;;;;;;;7.98;100.00;99657.84;6155342;23;20019;-75
2024/02/21 08:35:18;;;;;;;0.00;0.00;;;;;;;7.99;100.00;99664.94;6136063;23;20056;-74
2024/02/21 08:37:44;;;;;;;0.00;0.00;;;;;;;7.99;100.00;99637.72;6165664;23;20016;-75
2024/02/21 08:40:10;;;;;;;0.00;0.00;;;;;;;7.97;100.00;99635.28;6164066;23;20020;-75
2024/02/21 08:42:36;;;;;;;0.10;0.10;;;;;;;8.03;100.00;99636.06;6136538;23;20001;-76
2024/02/21 08:45:02;;;;;;;0.10;0.10;;;;;;;8.01;100.00;99625.44;6138442;23;20028;-75
2024/02/21 08:47:28;;;;;;;0.10;0.10;;;;;;;8.08;100.00;99633.38;6164868;23;20094;-75
2024/02/21 08:49:53;;;;;;;0.00;0.00;;;;;;;8.13;100.00;99603.44;6164857;23;20032;-75
2024/02/21 08:52:20;;;;;;;0.00;0.00;;;;;;;8.19;100.00;99607.81;6165900;23;20001;-76
2024/02/21 08:54:45;;;;;;;0.00;0.00;;;;;;;8.23;100.00;99599.09;6161229;23;20031;-76
2024/02/21 08:57:11;;;;;;;0.00;0.00;;;;;;;8.23;100.00;99571.84;6161204;23;20372;-77
2024/02/21 08:59:36;;;;;;;0.00;0.00;;;;;;;8.21;100.00;99567.50;6164587;23;20015;-75
2024/02/21 09:02:03;;;;;;;0.00;0.00;;;;;;;8.20;100.00;99568.56;6189606;23;20001;-76
2024/02/21 09:04:29;;;;;;;0.00;0.00;;;;;;;8.16;100.00;99553.88;6166077;23;20036;-75
2024/02/21 09:06:54;;;;;;;0.00;0.00;;;;;;;8.20;100.00;99560.41;6164459;23;20011;-75
2024/02/21 09:09:20;;;;;;;0.00;0.00;;;;;;;8.16;100.00;99545.72;6167469;23;20009;-75
2024/02/21 09:11:45;;;;;;;0.00;0.00;;;;;;;8.10;100.00;99538.59;6162058;23;20000;-77
2024/02/21 09:14:11;;;;;;;0.10;0.10;;;;;;;8.05;100.00;99533.16;6164428;23;20095;-75
2024/02/21 09:16:37;;;;;;;0.00;0.00;;;;;;;8.08;100.00;99521.72;6186630;23;20028;-76
2024/02/21 09:19:02;;;;;;;0.00;0.00;;;;;;;8.11;100.00;99532.09;6188082;23;20478;-74
2024/02/21 09:21:28;;;;;;;0.10;0.10;;;;;;;8.14;100.00;99526.09;6186583;23;20095;-75
2024/02/21 09:23:53;;;;;;;0.00;0.00;;;;;;;8.15;100.00;99527.72;6160968;23;20009;-75
2024/02/21 09:26:19;;;;;;;0.00;0.00;;;;;;;8.15;100.00;99505.94;6187859;23;20024;-74
2024/02/21 09:28:46;;;;;;;0.00;0.00;;;;;;;8.19;100.00;99496.16;6137872;23;20435;-78
2024/02/21 09:31:12;;;;;;;0.00;0.00;;;;;;;8.19;100.00;99482.53;6184694;23;20008;-73
2024/02/21 09:33:37;;;;;;;0.00;0.00;;;;;;;8.23;100.00;99484.69;6188361;23;20036;-74
2024/02/21 09:36:05;;;;;;;0.00;0.00;;;;;;;8.24;100.00;99470.00;6136702;23;20015;-74
2024/02/21 09:38:31;;;;;;;0.00;0.00;;;;;;;8.27;100.00;99469.44;6159759;23;20052;-74
2024/02/21 09:41:11;;;;;;;0.00;0.00;;;;;;;8.23;100.00;99441.13;6137194;23;20013;-74
2024/02/21 09:43:40;;;;;;;0.00;0.00;;;;;;;8.24;100.00;99450.94;6188793;23;20007;-75
2024/02/21 09:46:05;;;;;;;0.00;0.00;;;;;;;8.24;100.00;99435.41;6188610;23;20428;-75
2024/02/21 09:48:47;;;;;;;0.10;0.10;;;;;;;8.23;100.00;99441.94;6162386;23;20055;-74
2024/02/21 09:51:15;;;;;;;0.10;0.10;;;;;;;8.26;100.00;99419.59;6215104;23;20008;-75
2024/02/21 09:53:41;;;;;;;0.00;0.00;;;;;;;8.29;100.00;99416.31;6188498;23;20436;-74
2024/02/21 09:56:11;;;;;;;0.00;0.00;;;;;;;8.42;100.00;99420.38;6212786;23;20001;-74
2024/02/21 09:58:36;;;;;;;0.10;0.10;;;;;;;8.36;100.00;99411.41;6189356;23;20012;-74
2024/02/21 10:01:05;;;;;;;0.00;0.00;;;;;;;8.41;100.00;99413.31;6215571;23;20000;-74
2024/02/21 10:03:33;;;;;;;0.00;0.00;;;;;;;8.44;100.00;99410.06;6191521;23;20008;-75
2024/02/21 10:06:00;;;;;;;0.00;0.00;;;;;;;8.44;100.00;99385.53;6164924;23;20108;-75
2024/02/21 10:08:26;;;;;;;0.00;0.00;;;;;;;8.47;100.00;99412.22;6161212;23;20043;-76
2024/02/21 10:10:56;;;;;;;0.00;0.00;;;;;;;8.41;100.00;99394.25;6190504;23;20135;-74
2024/02/21 10:13:29;;;;;;;0.10;0.10;;;;;;;8.41;100.00;99383.34;6162553;23;20015;-75
2024/02/21 10:16:05;;;;;;;0.00;0.00;;;;;;;8.46;100.00;99394.25;6160813;23;20524;-75
2024/02/21 10:18:31;;;;;;;0.00;0.00;;;;;;;8.38;100.00;99368.38;6174777;23;20008;-75
2024/02/21 10:21:01;;;;;;;0.08;0.08;;;;;;;8.42;100.00;99362.34;6161686;23;20593;-75
2024/02/21 10:23:26;;;;;;;0.00;0.00;;;;;;;8.46;100.00;99369.72;6157943;23;20048;-74
2024/02/21 10:25:52;;;;;;;0.00;0.00;;;;;;;8.48;100.00;99361.28;6168372;23;20430;-76
2024/02/21 10:28:19;;;;;;;0.00;0.00;;;;;;;8.49;100.00;99352.81;6130478;23;20019;-76
2024/02/21 10:30:52;;;;;;;0.00;0.00;;;;;;;8.49;100.00;99352.81;6160303;23;20126;-75
2024/02/21 10:33:25;;;;;;;0.00;0.00;;;;;;;8.56;100.00;99326.09;6192043;23;20298;-77
2024/02/21 10:35:51;;;;;;;0.00;0.00;;;;;;;8.52;100.00;99322.28;6191498;23;19988;-76
2024/02/21 10:38:16;;;;;;;0.00;0.00;;;;;;;8.64;100.00;99323.88;6195127;23;20359;-76
2024/02/21 10:40:42;;;;;;;0.00;0.00;;;;;;;8.62;100.00;99362.31;6167246;23;20095;-76
2024/02/21 10:43:12;;;;;;;0.00;0.00;;;;;;;8.63;100.00;99320.34;6164964;23;20001;-77
2024/02/21 10:45:39;;;;;;;0.00;0.00;;;;;;;8.60;100.00;99304.56;6192352;23;20041;-77
2024/02/21 10:48:13;;;;;;;0.00;0.00;;;;;;;8.63;100.00;99289.53;6192010;23;20039;-77
2024/02/21 10:50:51;;;;;;;0.00;0.00;;;;;;;8.63;100.00;99294.97;6188946;23;20012;-77
2024/02/21 10:53:55;;;;;;;0.00;0.00;;;;;;;8.60;100.00;99298.28;6191658;23;20009;-74
2024/02/21 10:56:37;;;;;;;0.10;0.10;;;;;;;8.59;100.00;99274.88;6193134;23;20031;-75
2024/02/21 10:59:05;;;;;;;0.10;0.10;;;;;;;8.61;100.00;99254.38;6187589;23;20004;-74
2024/02/21 11:01:31;;;;;;;0.00;0.00;;;;;;;8.64;100.00;99261.19;6191241;23;20001;-74
2024/02/21 11:04:01;;;;;;;0.00;0.00;;;;;;;8.68;100.00;99257.63;6163965;23;20017;-74
2024/02/21 11:06:28;;;;;;;0.00;0.00;;;;;;;8.75;100.00;99246.41;6183631;23;20059;-72
2024/02/21 11:09:07;;;;;;;0.00;0.00;;;;;;;8.75;100.00;99230.06;6157083;23;20060;-73
2024/02/21 11:11:38;;;;;;;0.00;0.00;;;;;;;8.76;100.00;99261.69;6189043;23;20084;-74
2024/02/21 11:14:11;;;;;;;0.00;0.00;;;;;;;8.73;100.00;99248.59;6164249;23;20124;-73
2024/02/21 11:16:41;;;;;;;0.10;0.10;;;;;;;8.82;100.00;99233.28;6186494;23;20039;-73
2024/02/21 11:19:07;;;;;;;0.00;0.00;;;;;;;8.82;100.00;99230.56;6185420;23;20008;-74
2024/02/21 11:21:37;;;;;;;0.00;0.00;;;;;;;8.85;100.00;99210.91;6187299;23;20009;-74
2024/02/21 11:24:04;;;;;;;0.00;0.00;;;;;;;8.89;100.00;99214.69;6166029;23;20015;-74
2024/02/21 11:26:31;;;;;;;0.00;0.00;;;;;;;8.91;100.00;99193.41;6161628;23;20036;-73
2024/02/21 11:29:02;;;;;;;0.00;0.00;;;;;;;8.99;100.00;99196.63;6190852;23;20451;-74
2024/02/21 11:31:39;;;;;;;0.00;0.00;;;;;;;9.02;100.00;99223.31;6189018;23;20012;-75
2024/02/21 11:34:04;;;;;;;0.10;0.10;;;;;;;9.01;100.00;99172.59;6193488;23;20328;-75
2024/02/21 11:36:30;;;;;;;0.00;0.00;;;;;;;9.07;100.00;99176.91;6162960;23;20012;-75
2024/02/21 11:39:04;;;;;;;0.00;0.00;;;;;;;9.00;100.00;99155.44;6165244;23;20016;-74
2024/02/21 11:41:29;;;;;;;0.00;0.00;;;;;;;9.09;100.00;99152.91;6188417;23;20011;-75
2024/02/21 11:43:55;;;;;;;0.00;0.00;;;;;;;9.09;100.00;99152.91;6140276;23;20008;-74
2024/02/21 11:46:21;;;;;;;0.00;0.00;;;;;;;9.08;100.00;99140.34;6140448;23;20028;-75
2024/02/21 11:48:50;;;;;;;0.00;0.00;;;;;;;9.09;100.00;99126.44;6161174;23;20028;-75
2024/02/21 11:51:25;;;;;;;0.00;0.00;;;;;;;9.17;100.00;99137.81;6163011;23;20169;-74
2024/02/21 11:53:52;;;;;;;0.00;0.00;;;;;;;9.18;100.00;99115.69;6212820;23;20000;-74
2024/02/21 11:56:19;;;;;;;0.00;0.00;;;;;;;9.21;100.00;99127.97;6188767;23;20058;-74
2024/02/21 11:58:46;;;;;;;0.00;0.00;;;;;;;9.22;100.00;99094.94;6162713;23;20087;-75
2024/02/21 12:01:11;;;;;;;0.00;0.00;;;;;;;9.34;100.00;99080.09;6161315;23;20009;-74
2024/02/21 12:03:37;;;;;;;0.00;0.00;;;;;;;9.48;100.00;99081.00;6187865;23;20059;-74
2024/02/21 12:06:03;;;;;;;0.00;0.00;;;;;;;9.49;100.00;99069.00;6164151;23;20012;-75
2024/02/21 12:08:41;;;;;;;0.00;0.00;;;;;;;9.47;100.00;99076.66;6216807;23;20079;-74
2024/02/21 12:11:22;;;;;;;0.10;0.10;;;;;;;9.49;100.00;99055.34;6165224;23;20027;-75
2024/02/21 12:14:09;;;;;;;0.10;0.10;;;;;;;9.54;100.00;99041.63;6164298;23;20601;-75
2024/02/21 12:16:38;;;;;;;0.00;0.00;;;;;;;9.53;100.00;99042.72;6179745;23;20012;-76